Terminal Aerodrome Forecast
Issued by NWS Cleveland, OH

Home | Current Version | Previous Version | Graphics & Text | Print | Product List | Glossary On
Versions: 1 2 3 4 5 6 7 8 9 10 11 12 13 14 15 16 17 18 19 20 21
000
FTUS41 KCLE 011700
TAFMFD
TAF
KMFD 011722Z 0118/0218 20012G20KT P6SM SCT040
      TEMPO 0123/0202 3SM TSRA OVC025CB
     FM021000 21010KT 3SM SHRA BR VCTS OVC025CB
     FM021400 22005KT 5SM -SHRA OVC015=

USA.gov is the U.S. government's official web portal to all federal, state and local government web resources and services.